Accueil
METAR-TAF:

METAR-TAF

Aéroports :

Accomack County Airport

Melfa, Virginie, États-Unis

latitude: 37-39N, longitude: 075-46W, altitude: 15 m

Observation

Le bulletin a été fait il y a 3 heures et 23 minutes, à 12:55 UTC
Vent 5 kt de nord/nord-ouest
Température 9°C
Humidité 76%
Pression 1024 hPa
Visibilité: 16.1 km
Ciel couvert à une hauteur de 6000 ft

METAR: KMFV 191255Z AUTO 33005KT 10SM OVC060 09/05 A3024 RMK AO2 T00850046

Heure: 11:18 (16:18 UTC)


TAF: absent

Observations et prévisions météorologiques de plus de 4000 aéroports (messages METAR et TAF).

Les stations disponibles sont représentées par des disques jaunes et rouges sur la carte.

Passer la souris dessus pour voir le nom de la station.

Cliquer dessus pour voir les observations et prévisions météorologiques.

Pour changer de carte: cliquez sur les boutons verts avec une croix noire pour zoomer, sur le bouton vert avec un tiret pour effectuer un zoom arrière, ou sur les flèches vertes pour les cartes adjacentes.


METAR-TAF: